sensor_id;sensor_type;location;lat;lon;timestamp;pressure;altitude;pressure_sealevel;temperature;humidity
78990;BME280;68390;52.130;21.218;2023-04-24T00:00:32;99707.09;;;9.92;58.32
78990;BME280;68390;52.130;21.218;2023-04-24T00:02:58;99713.78;;;9.89;59.99
78990;BME280;68390;52.130;21.218;2023-04-24T00:05:24;99711.59;;;9.85;59.95
78990;BME280;68390;52.130;21.218;2023-04-24T00:07:49;99709.22;;;9.82;58.19
78990;BME280;68390;52.130;21.218;2023-04-24T00:10:18;99708.38;;;9.81;60.37
78990;BME280;68390;52.130;21.218;2023-04-24T00:12:43;99704.94;;;9.79;59.09
78990;BME280;68390;52.130;21.218;2023-04-24T00:15:10;99697.06;;;9.76;58.51
78990;BME280;68390;52.130;21.218;2023-04-24T00:17:35;99705.88;;;9.72;59.46
78990;BME280;68390;52.130;21.218;2023-04-24T00:20:01;99693.53;;;9.68;62.77
78990;BME280;68390;52.130;21.218;2023-04-24T00:22:29;99691.66;;;9.68;58.04
78990;BME280;68390;52.130;21.218;2023-04-24T00:24:55;99686.19;;;9.68;58.71
78990;BME280;68390;52.130;21.218;2023-04-24T00:27:21;99693.19;;;9.71;58.63
78990;BME280;68390;52.130;21.218;2023-04-24T00:29:47;99703.47;;;9.69;60.48
78990;BME280;68390;52.130;21.218;2023-04-24T00:32:12;99707.25;;;9.68;60.63
78990;BME280;68390;52.130;21.218;2023-04-24T00:34:38;99696.66;;;9.65;58.69
78990;BME280;68390;52.130;21.218;2023-04-24T00:37:03;99702.50;;;9.62;61.36
78990;BME280;68390;52.130;21.218;2023-04-24T00:39:29;99694.28;;;9.62;59.94
78990;BME280;68390;52.130;21.218;2023-04-24T00:41:54;99689.16;;;9.58;58.73
78990;BME280;68390;52.130;21.218;2023-04-24T00:44:20;99686.78;;;9.55;58.52
78990;BME280;68390;52.130;21.218;2023-04-24T00:46:46;99693.31;;;9.54;59.60
78990;BME280;68390;52.130;21.218;2023-04-24T00:49:13;99688.19;;;9.51;59.94
78990;BME280;68390;52.130;21.218;2023-04-24T00:51:39;99688.53;;;9.48;59.73
78990;BME280;68390;52.130;21.218;2023-04-24T00:54:05;99684.47;;;9.44;60.60
78990;BME280;68390;52.130;21.218;2023-04-24T00:56:31;99680.03;;;9.43;60.46
78990;BME280;68390;52.130;21.218;2023-04-24T00:58:57;99682.44;;;9.38;60.75
78990;BME280;68390;52.130;21.218;2023-04-24T01:01:23;99676.66;;;9.33;61.05
78990;BME280;68390;52.130;21.218;2023-04-24T01:03:49;99686.25;;;9.29;60.12
78990;BME280;68390;52.130;21.218;2023-04-24T01:06:16;99688.66;;;9.24;60.26
78990;BME280;68390;52.130;21.218;2023-04-24T01:08:42;99687.34;;;9.20;60.80
78990;BME280;68390;52.130;21.218;2023-04-24T01:11:08;99677.94;;;9.14;60.62
78990;BME280;68390;52.130;21.218;2023-04-24T01:13:34;99677.81;;;9.08;61.51
78990;BME280;68390;52.130;21.218;2023-04-24T01:16:00;99671.81;;;9.04;62.15
78990;BME280;68390;52.130;21.218;2023-04-24T01:18:26;99677.84;;;9.00;62.33
78990;BME280;68390;52.130;21.218;2023-04-24T01:20:57;99673.75;;;8.96;61.65
78990;BME280;68390;52.130;21.218;2023-04-24T01:23:22;99676.19;;;8.91;61.72
78990;BME280;68390;52.130;21.218;2023-04-24T01:25:49;99676.53;;;8.88;63.16
78990;BME280;68390;52.130;21.218;2023-04-24T01:28:16;99677.72;;;8.85;63.60
78990;BME280;68390;52.130;21.218;2023-04-24T01:30:41;99672.63;;;8.82;63.15
78990;BME280;68390;52.130;21.218;2023-04-24T01:33:07;99678.28;;;8.80;64.81
78990;BME280;68390;52.130;21.218;2023-04-24T01:35:32;99674.16;;;8.76;63.42
78990;BME280;68390;52.130;21.218;2023-04-24T01:37:58;99666.31;;;8.73;64.63
78990;BME280;68390;52.130;21.218;2023-04-24T01:40:24;99670.91;;;8.73;63.11
78990;BME280;68390;52.130;21.218;2023-04-24T01:42:49;99663.94;;;8.70;62.77
78990;BME280;68390;52.130;21.218;2023-04-24T01:45:15;99666.69;;;8.70;63.20
78990;BME280;68390;52.130;21.218;2023-04-24T01:47:41;99673.88;;;8.71;63.07
78990;BME280;68390;52.130;21.218;2023-04-24T01:50:07;99671.78;;;8.73;63.40
78990;BME280;68390;52.130;21.218;2023-04-24T01:52:33;99671.78;;;8.73;63.64
78990;BME280;68390;52.130;21.218;2023-04-24T01:55:02;99662.72;;;8.73;63.77
78990;BME280;68390;52.130;21.218;2023-04-24T01:57:29;99658.09;;;8.73;64.84
78990;BME280;68390;52.130;21.218;2023-04-24T01:59:56;99658.09;;;8.73;63.15
78990;BME280;68390;52.130;21.218;2023-04-24T02:02:22;99661.03;;;8.72;63.14
78990;BME280;68390;52.130;21.218;2023-04-24T02:04:51;99655.72;;;8.70;63.07
78990;BME280;68390;52.130;21.218;2023-04-24T02:07:17;99650.44;;;8.69;62.68
78990;BME280;68390;52.130;21.218;2023-04-24T02:09:42;99655.22;;;8.67;63.41
78990;BME280;68390;52.130;21.218;2023-04-24T02:12:08;99648.22;;;8.64;64.67
78990;BME280;68390;52.130;21.218;2023-04-24T02:14:33;99661.03;;;8.64;64.08
78990;BME280;68390;52.130;21.218;2023-04-24T02:16:59;99655.09;;;8.60;64.41
78990;BME280;68390;52.130;21.218;2023-04-24T02:19:25;99659.03;;;8.58;65.14
78990;BME280;68390;52.130;21.218;2023-04-24T02:21:51;99662.94;;;8.55;65.76
78990;BME280;68390;52.130;21.218;2023-04-24T02:24:17;99649.63;;;8.52;64.22
78990;BME280;68390;52.130;21.218;2023-04-24T02:26:42;99638.00;;;8.50;65.37
78990;BME280;68390;52.130;21.218;2023-04-24T02:29:07;99646.22;;;8.50;64.50
78990;BME280;68390;52.130;21.218;2023-04-24T02:31:33;99642.13;;;8.46;64.86
78990;BME280;68390;52.130;21.218;2023-04-24T02:33:59;99640.94;;;8.40;64.47
78990;BME280;68390;52.130;21.218;2023-04-24T02:36:24;99642.84;;;8.40;64.87
78990;BME280;68390;52.130;21.218;2023-04-24T02:38:50;99623.34;;;8.35;64.65
78990;BME280;68390;52.130;21.218;2023-04-24T02:41:15;99633.94;;;8.30;64.98
78990;BME280;68390;52.130;21.218;2023-04-24T02:43:41;99628.47;;;8.22;65.25
78990;BME280;68390;52.130;21.218;2023-04-24T02:46:06;99618.22;;;8.16;66.21
78990;BME280;68390;52.130;21.218;2023-04-24T02:48:32;99619.59;;;8.11;65.72
78990;BME280;68390;52.130;21.218;2023-04-24T02:50:57;99617.41;;;8.07;66.44
78990;BME280;68390;52.130;21.218;2023-04-24T02:53:23;99619.28;;;8.06;66.42
78990;BME280;68390;52.130;21.218;2023-04-24T02:55:48;99612.28;;;8.04;66.08
78990;BME280;68390;52.130;21.218;2023-04-24T02:58:14;99621.31;;;8.04;66.77
78990;BME280;68390;52.130;21.218;2023-04-24T03:00:40;99617.06;;;8.02;66.78
78990;BME280;68390;52.130;21.218;2023-04-24T03:03:05;99623.06;;;7.97;66.88
78990;BME280;68390;52.130;21.218;2023-04-24T03:05:32;99615.34;;;7.93;67.47
78990;BME280;68390;52.130;21.218;2023-04-24T03:07:57;99621.16;;;7.90;66.62
78990;BME280;68390;52.130;21.218;2023-04-24T03:10:22;99618.97;;;7.85;67.40
78990;BME280;68390;52.130;21.218;2023-04-24T03:12:48;99616.91;;;7.79;68.23
78990;BME280;68390;52.130;21.218;2023-04-24T03:15:16;99615.72;;;7.73;68.14
78990;BME280;68390;52.130;21.218;2023-04-24T03:17:41;99613.16;;;7.72;68.19
78990;BME280;68390;52.130;21.218;2023-04-24T03:20:07;99615.91;;;7.64;75.72
78990;BME280;68390;52.130;21.218;2023-04-24T03:22:33;99621.84;;;7.51;78.20
78990;BME280;68390;52.130;21.218;2023-04-24T03:24:59;99617.75;;;7.39;78.30
78990;BME280;68390;52.130;21.218;2023-04-24T03:27:25;99614.47;;;7.27;77.19
78990;BME280;68390;52.130;21.218;2023-04-24T03:29:50;99621.66;;;7.20;78.53
78990;BME280;68390;52.130;21.218;2023-04-24T03:32:22;99633.09;;;7.16;77.12
78990;BME280;68390;52.130;21.218;2023-04-24T03:34:48;99628.81;;;7.13;76.90
78990;BME280;68390;52.130;21.218;2023-04-24T03:37:14;99625.56;;;7.10;75.77
78990;BME280;68390;52.130;21.218;2023-04-24T03:39:40;99623.16;;;7.07;75.61
78990;BME280;68390;52.130;21.218;2023-04-24T03:42:05;99624.88;;;7.08;76.46
78990;BME280;68390;52.130;21.218;2023-04-24T03:44:31;99624.69;;;7.01;83.35
78990;BME280;68390;52.130;21.218;2023-04-24T03:46:57;99619.91;;;6.95;81.88
78990;BME280;68390;52.130;21.218;2023-04-24T03:49:23;99629.63;;;6.97;81.40
78990;BME280;68390;52.130;21.218;2023-04-24T03:51:48;99629.13;;;7.02;78.79
78990;BME280;68390;52.130;21.218;2023-04-24T03:54:14;99622.28;;;7.06;79.21
78990;BME280;68390;52.130;21.218;2023-04-24T03:56:39;99625.56;;;7.10;77.57
78990;BME280;68390;52.130;21.218;2023-04-24T03:59:05;99623.53;;;7.12;76.37
78990;BME280;68390;52.130;21.218;2023-04-24T04:01:30;99626.78;;;7.15;76.54
78990;BME280;68390;52.130;21.218;2023-04-24T04:03:56;99626.41;;;7.18;77.20
78990;BME280;68390;52.130;21.218;2023-04-24T04:06:21;99630.88;;;7.19;74.66
78990;BME280;68390;52.130;21.218;2023-04-24T04:08:47;99633.44;;;7.21;76.70
78990;BME280;68390;52.130;21.218;2023-04-24T04:11:12;99633.09;;;7.24;75.32
78990;BME280;68390;52.130;21.218;2023-04-24T04:13:38;99643.34;;;7.30;75.05
78990;BME280;68390;52.130;21.218;2023-04-24T04:16:03;99653.41;;;7.37;75.12
78990;BME280;68390;52.130;21.218;2023-04-24T04:18:28;99647.28;;;7.44;73.90
78990;BME280;68390;52.130;21.218;2023-04-24T04:20:54;99636.03;;;7.47;75.70
78990;BME280;68390;52.130;21.218;2023-04-24T04:23:20;99642.53;;;7.54;75.35
78990;BME280;68390;52.130;21.218;2023-04-24T04:25:45;99642.69;;;7.60;74.33
78990;BME280;68390;52.130;21.218;2023-04-24T04:28:12;99648.00;;;7.70;74.55
78990;BME280;68390;52.130;21.218;2023-04-24T04:30:37;99646.31;;;7.77;72.74
78990;BME280;68390;52.130;21.218;2023-04-24T04:33:03;99640.50;;;7.88;73.92
78990;BME280;68390;52.130;21.218;2023-04-24T04:35:28;99644.22;;;7.95;73.83
78990;BME280;68390;52.130;21.218;2023-04-24T04:37:54;99638.59;;;8.05;71.88
78990;BME280;68390;52.130;21.218;2023-04-24T04:40:19;99638.56;;;8.13;70.57
78990;BME280;68390;52.130;21.218;2023-04-24T04:42:45;99641.28;;;8.21;72.68
78990;BME280;68390;52.130;21.218;2023-04-24T04:45:11;99637.53;;;8.30;72.60
78990;BME280;68390;52.130;21.218;2023-04-24T04:47:37;99638.22;;;8.40;69.88
78990;BME280;68390;52.130;21.218;2023-04-24T04:50:02;99645.84;;;8.53;69.61
78990;BME280;68390;52.130;21.218;2023-04-24T04:52:29;99631.44;;;8.67;71.09
78990;BME280;68390;52.130;21.218;2023-04-24T04:54:55;99632.94;;;8.78;68.77
78990;BME280;68390;52.130;21.218;2023-04-24T04:57:20;99632.56;;;8.89;71.65
78990;BME280;68390;52.130;21.218;2023-04-24T04:59:46;99640.53;;;8.99;70.56
78990;BME280;68390;52.130;21.218;2023-04-24T05:02:11;99638.44;;;9.09;69.69
78990;BME280;68390;52.130;21.218;2023-04-24T05:04:37;99632.56;;;9.20;68.67
78990;BME280;68390;52.130;21.218;2023-04-24T05:07:03;99643.44;;;9.28;67.50
78990;BME280;68390;52.130;21.218;2023-04-24T05:09:28;99634.16;;;9.37;67.81
78990;BME280;68390;52.130;21.218;2023-04-24T05:11:55;99622.47;;;9.43;66.63
78990;BME280;68390;52.130;21.218;2023-04-24T05:14:20;99622.69;;;9.56;67.39
78990;BME280;68390;52.130;21.218;2023-04-24T05:16:46;99629.78;;;9.74;66.41
78990;BME280;68390;52.130;21.218;2023-04-24T05:19:11;99618.38;;;9.85;67.53
78990;BME280;68390;52.130;21.218;2023-04-24T05:21:39;99624.06;;;9.98;68.47
78990;BME280;68390;52.130;21.218;2023-04-24T05:24:05;99627.38;;;10.08;66.10
78990;BME280;68390;52.130;21.218;2023-04-24T05:26:31;99622.53;;;10.18;65.43
78990;BME280;68390;52.130;21.218;2023-04-24T05:28:56;99624.53;;;10.24;67.39
78990;BME280;68390;52.130;21.218;2023-04-24T05:31:22;99623.03;;;10.37;64.23
78990;BME280;68390;52.130;21.218;2023-04-24T05:33:47;99626.63;;;10.66;64.59
78990;BME280;68390;52.130;21.218;2023-04-24T05:36:13;99617.22;;;10.90;64.15
78990;BME280;68390;52.130;21.218;2023-04-24T05:38:38;99618.22;;;11.19;62.39
78990;BME280;68390;52.130;21.218;2023-04-24T05:41:04;99616.69;;;11.31;62.20
78990;BME280;68390;52.130;21.218;2023-04-24T05:43:29;99606.59;;;11.38;60.58
78990;BME280;68390;52.130;21.218;2023-04-24T05:45:55;99618.31;;;11.47;61.42
78990;BME280;68390;52.130;21.218;2023-04-24T05:48:20;99625.38;;;11.56;62.49
78990;BME280;68390;52.130;21.218;2023-04-24T05:50:47;99621.03;;;11.61;61.33
78990;BME280;68390;52.130;21.218;2023-04-24T05:53:13;99618.06;;;11.63;60.90
78990;BME280;68390;52.130;21.218;2023-04-24T05:55:38;99615.53;;;11.61;60.55
78990;BME280;68390;52.130;21.218;2023-04-24T05:58:04;99620.16;;;11.61;60.54
78990;BME280;68390;52.130;21.218;2023-04-24T06:00:30;99615.91;;;11.58;62.02
78990;BME280;68390;52.130;21.218;2023-04-24T06:02:55;99620.75;;;11.56;60.71
78990;BME280;68390;52.130;21.218;2023-04-24T06:05:21;99620.28;;;11.53;61.88
78990;BME280;68390;52.130;21.218;2023-04-24T06:07:46;99624.28;;;11.50;63.66
78990;BME280;68390;52.130;21.218;2023-04-24T06:10:12;99618.13;;;11.48;61.66
78990;BME280;68390;52.130;21.218;2023-04-24T06:12:38;99617.53;;;11.53;61.50
78990;BME280;68390;52.130;21.218;2023-04-24T06:15:03;99604.91;;;11.58;61.64
78990;BME280;68390;52.130;21.218;2023-04-24T06:17:30;99611.78;;;11.69;61.29
78990;BME280;68390;52.130;21.218;2023-04-24T06:19:55;99613.84;;;11.82;61.71
78990;BME280;68390;52.130;21.218;2023-04-24T06:22:21;99599.56;;;11.93;60.19
78990;BME280;68390;52.130;21.218;2023-04-24T06:24:46;99604.28;;;12.05;60.65
78990;BME280;68390;52.130;21.218;2023-04-24T06:27:13;99598.31;;;12.23;59.72
78990;BME280;68390;52.130;21.218;2023-04-24T06:29:38;99595.84;;;12.35;59.99
78990;BME280;68390;52.130;21.218;2023-04-24T06:32:04;99595.06;;;12.47;59.81
78990;BME280;68390;52.130;21.218;2023-04-24T06:34:29;99588.78;;;12.60;57.47
78990;BME280;68390;52.130;21.218;2023-04-24T06:36:56;99591.44;;;12.75;58.26
78990;BME280;68390;52.130;21.218;2023-04-24T06:39:21;99582.59;;;12.93;56.24
78990;BME280;68390;52.130;21.218;2023-04-24T06:41:47;99584.78;;;13.10;56.90
78990;BME280;68390;52.130;21.218;2023-04-24T06:44:12;99583.81;;;13.25;55.39
78990;BME280;68390;52.130;21.218;2023-04-24T06:46:40;99572.81;;;13.44;55.10
78990;BME280;68390;52.130;21.218;2023-04-24T06:49:05;99564.59;;;13.64;55.64
78990;BME280;68390;52.130;21.218;2023-04-24T06:51:31;99573.09;;;13.89;55.26
78990;BME280;68390;52.130;21.218;2023-04-24T06:53:58;99569.47;;;14.08;55.41
78990;BME280;68390;52.130;21.218;2023-04-24T06:56:24;99578.16;;;14.25;54.76
78990;BME280;68390;52.130;21.218;2023-04-24T06:58:50;99574.78;;;14.43;52.84
78990;BME280;68390;52.130;21.218;2023-04-24T07:01:16;99573.69;;;14.57;53.65
78990;BME280;68390;52.130;21.218;2023-04-24T07:03:42;99573.44;;;14.72;53.59
78990;BME280;68390;52.130;21.218;2023-04-24T07:06:07;99571.66;;;14.90;51.11
78990;BME280;68390;52.130;21.218;2023-04-24T07:08:33;99569.19;;;15.20;49.57
78990;BME280;68390;52.130;21.218;2023-04-24T07:10:59;99561.56;;;15.47;51.81
78990;BME280;68390;52.130;21.218;2023-04-24T07:13:25;99564.34;;;15.78;48.02
78990;BME280;68390;52.130;21.218;2023-04-24T07:15:51;99554.22;;;15.97;47.85
78990;BME280;68390;52.130;21.218;2023-04-24T07:18:19;99562.72;;;16.21;47.53
78990;BME280;68390;52.130;21.218;2023-04-24T07:20:44;99563.91;;;16.31;46.00
78990;BME280;68390;52.130;21.218;2023-04-24T07:23:10;99562.47;;;16.47;48.22
78990;BME280;68390;52.130;21.218;2023-04-24T07:25:35;99557.88;;;16.59;46.12
78990;BME280;68390;52.130;21.218;2023-04-24T07:28:01;99561.13;;;16.74;46.46
78990;BME280;68390;52.130;21.218;2023-04-24T07:30:27;99557.03;;;16.95;47.22
78990;BME280;68390;52.130;21.218;2023-04-24T07:32:54;99560.66;;;17.14;44.73
78990;BME280;68390;52.130;21.218;2023-04-24T07:35:20;99558.09;;;17.31;44.23
78990;BME280;68390;52.130;21.218;2023-04-24T07:37:45;99545.47;;;17.46;44.40
78990;BME280;68390;52.130;21.218;2023-04-24T07:40:12;99554.22;;;17.61;47.55
78990;BME280;68390;52.130;21.218;2023-04-24T07:42:38;99547.88;;;17.73;42.77
78990;BME280;68390;52.130;21.218;2023-04-24T07:45:04;99552.13;;;17.87;42.06
78990;BME280;68390;52.130;21.218;2023-04-24T07:47:30;99554.00;;;18.05;44.43
78990;BME280;68390;52.130;21.218;2023-04-24T07:49:55;99546.16;;;18.37;45.85
78990;BME280;68390;52.130;21.218;2023-04-24T07:52:21;99547.13;;;18.77;45.89
78990;BME280;68390;52.130;21.218;2023-04-24T07:54:46;99546.97;;;19.24;43.39
78990;BME280;68390;52.130;21.218;2023-04-24T07:57:12;99540.72;;;19.73;37.93
78990;BME280;68390;52.130;21.218;2023-04-24T07:59:37;99531.47;;;20.18;37.00
78990;BME280;68390;52.130;21.218;2023-04-24T08:02:02;99542.19;;;20.26;40.35
78990;BME280;68390;52.130;21.218;2023-04-24T08:04:28;99541.78;;;20.34;38.43
78990;BME280;68390;52.130;21.218;2023-04-24T08:06:53;99537.78;;;20.64;37.61
78990;BME280;68390;52.130;21.218;2023-04-24T08:09:19;99533.91;;;20.65;40.49
78990;BME280;68390;52.130;21.218;2023-04-24T08:11:44;99546.00;;;20.54;37.46
78990;BME280;68390;52.130;21.218;2023-04-24T08:14:10;99531.09;;;20.65;43.57
78990;BME280;68390;52.130;21.218;2023-04-24T08:16:37;99536.84;;;20.58;34.79
78990;BME280;68390;52.130;21.218;2023-04-24T08:19:02;99534.91;;;20.59;35.08
78990;BME280;68390;52.130;21.218;2023-04-24T08:21:28;99534.31;;;20.57;38.61
78990;BME280;68390;52.130;21.218;2023-04-24T08:23:53;99536.75;;;20.70;36.93
78990;BME280;68390;52.130;21.218;2023-04-24T08:26:19;99538.47;;;21.14;37.08
78990;BME280;68390;52.130;21.218;2023-04-24T08:28:45;99542.22;;;21.47;34.66
78990;BME280;68390;52.130;21.218;2023-04-24T08:31:11;99526.91;;;21.81;37.96
78990;BME280;68390;52.130;21.218;2023-04-24T08:33:36;99530.84;;;22.12;38.51
78990;BME280;68390;52.130;21.218;2023-04-24T08:36:03;99531.94;;;22.43;34.87
78990;BME280;68390;52.130;21.218;2023-04-24T08:38:29;99528.34;;;22.48;35.61
78990;BME280;68390;52.130;21.218;2023-04-24T08:40:54;99534.00;;;22.58;37.07
78990;BME280;68390;52.130;21.218;2023-04-24T08:43:21;99529.28;;;22.63;36.65
78990;BME280;68390;52.130;21.218;2023-04-24T08:45:47;99531.84;;;22.70;34.78
78990;BME280;68390;52.130;21.218;2023-04-24T08:48:12;99541.81;;;22.93;35.41
78990;BME280;68390;52.130;21.218;2023-04-24T08:50:40;99535.09;;;22.94;37.47
78990;BME280;68390;52.130;21.218;2023-04-24T08:53:08;99542.41;;;23.00;37.76
78990;BME280;68390;52.130;21.218;2023-04-24T08:55:33;99528.19;;;23.12;37.85
78990;BME280;68390;52.130;21.218;2023-04-24T08:58:00;99534.63;;;23.17;37.13
78990;BME280;68390;52.130;21.218;2023-04-24T09:00:26;99527.63;;;23.15;36.32
78990;BME280;68390;52.130;21.218;2023-04-24T09:02:53;99532.94;;;23.11;35.21
78990;BME280;68390;52.130;21.218;2023-04-24T09:05:20;99537.97;;;23.09;36.29
78990;BME280;68390;52.130;21.218;2023-04-24T09:07:55;99537.38;;;23.02;36.06
78990;BME280;68390;52.130;21.218;2023-04-24T09:10:23;99535.94;;;22.99;39.08
78990;BME280;68390;52.130;21.218;2023-04-24T09:12:50;99539.50;;;22.85;34.67
78990;BME280;68390;52.130;21.218;2023-04-24T09:15:16;99547.06;;;22.42;34.22
78990;BME280;68390;52.130;21.218;2023-04-24T09:17:42;99535.41;;;22.18;37.49
78990;BME280;68390;52.130;21.218;2023-04-24T09:20:08;99537.75;;;22.00;36.52
78990;BME280;68390;52.130;21.218;2023-04-24T09:22:33;99529.81;;;21.91;36.18
78990;BME280;68390;52.130;21.218;2023-04-24T09:25:02;99527.81;;;21.87;41.66
78990;BME280;68390;52.130;21.218;2023-04-24T09:27:28;99527.50;;;21.83;37.08
78990;BME280;68390;52.130;21.218;2023-04-24T09:29:55;99522.97;;;21.77;39.87
78990;BME280;68390;52.130;21.218;2023-04-24T09:32:21;99524.03;;;21.71;35.09
78990;BME280;68390;52.130;21.218;2023-04-24T09:34:47;99520.22;;;21.82;39.65
78990;BME280;68390;52.130;21.218;2023-04-24T09:37:29;99515.75;;;21.81;35.80
78990;BME280;68390;52.130;21.218;2023-04-24T09:40:17;99519.03;;;22.00;37.65
78990;BME280;68390;52.130;21.218;2023-04-24T09:42:54;99521.69;;;22.17;38.00
78990;BME280;68390;52.130;21.218;2023-04-24T09:45:22;99517.31;;;22.31;39.51
78990;BME280;68390;52.130;21.218;2023-04-24T09:47:52;99516.94;;;22.17;35.85
78990;BME280;68390;52.130;21.218;2023-04-24T09:50:20;99514.31;;;22.43;36.70
78990;BME280;68390;52.130;21.218;2023-04-24T09:52:56;99515.28;;;22.63;37.48
78990;BME280;68390;52.130;21.218;2023-04-24T09:55:21;99501.47;;;22.84;33.95
78990;BME280;68390;52.130;21.218;2023-04-24T09:57:55;99508.53;;;23.01;34.69
78990;BME280;68390;52.130;21.218;2023-04-24T10:00:25;99505.25;;;23.25;39.38
78990;BME280;68390;52.130;21.218;2023-04-24T10:03:09;99506.44;;;23.49;32.53
78990;BME280;68390;52.130;21.218;2023-04-24T10:05:37;99508.19;;;23.65;31.14
78990;BME280;68390;52.130;21.218;2023-04-24T10:08:07;99495.00;;;23.71;33.75
78990;BME280;68390;52.130;21.218;2023-04-24T10:10:41;99493.34;;;23.80;31.89
78990;BME280;68390;52.130;21.218;2023-04-24T10:13:11;99486.03;;;23.79;31.59
78990;BME280;68390;52.130;21.218;2023-04-24T10:15:38;99493.91;;;23.77;30.01
78990;BME280;68390;52.130;21.218;2023-04-24T10:18:04;99488.28;;;23.72;32.25
78990;BME280;68390;52.130;21.218;2023-04-24T10:20:32;99492.78;;;23.78;30.31
78990;BME280;68390;52.130;21.218;2023-04-24T10:22:59;99489.97;;;23.73;30.18
78990;BME280;68390;52.130;21.218;2023-04-24T10:25:26;99487.19;;;23.93;31.63
78990;BME280;68390;52.130;21.218;2023-04-24T10:27:54;99484.38;;;23.93;33.43
78990;BME280;68390;52.130;21.218;2023-04-24T10:30:26;99481.56;;;24.03;32.80
78990;BME280;68390;52.130;21.218;2023-04-24T10:32:52;99478.47;;;24.15;32.36
78990;BME280;68390;52.130;21.218;2023-04-24T10:35:18;99475.41;;;24.22;32.64
78990;BME280;68390;52.130;21.218;2023-04-24T10:38:01;99466.41;;;24.30;35.40
78990;BME280;68390;52.130;21.218;2023-04-24T10:40:34;99477.63;;;24.30;30.71
78990;BME280;68390;52.130;21.218;2023-04-24T10:43:03;99464.19;;;24.22;28.57
78990;BME280;68390;52.130;21.218;2023-04-24T10:45:31;99463.34;;;24.31;30.49
78990;BME280;68390;52.130;21.218;2023-04-24T10:48:04;99452.38;;;24.35;30.67
78990;BME280;68390;52.130;21.218;2023-04-24T10:50:50;99450.97;;;24.42;29.25
78990;BME280;68390;52.130;21.218;2023-04-24T10:53:21;99450.69;;;24.44;29.90
78990;BME280;68390;52.130;21.218;2023-04-24T10:56:00;99457.97;;;24.45;28.60
78990;BME280;68390;52.130;21.218;2023-04-24T10:58:50;99457.13;;;24.55;28.28
78990;BME280;68390;52.130;21.218;2023-04-24T11:01:28;99456.00;;;24.50;28.01
78990;BME280;68390;52.130;21.218;2023-04-24T11:03:58;99455.44;;;24.43;27.75
78990;BME280;68390;52.130;21.218;2023-04-24T11:06:35;99449.00;;;24.48;27.75
78990;BME280;68390;52.130;21.218;2023-04-24T11:09:06;99446.16;;;24.53;28.25
78990;BME280;68390;52.130;21.218;2023-04-24T11:11:33;99448.97;;;24.53;26.51
78990;BME280;68390;52.130;21.218;2023-04-24T11:21:54;99445.41;;;24.27;27.00
78990;BME280;68390;52.130;21.218;2023-04-24T11:27:20;99438.94;;;24.22;29.19
78990;BME280;68390;52.130;21.218;2023-04-24T11:29:59;99445.66;;;24.36;31.20
78990;BME280;68390;52.130;21.218;2023-04-24T11:37:39;99444.56;;;24.27;32.39
78990;BME280;68390;52.130;21.218;2023-04-24T11:40:15;99440.59;;;24.33;30.29
78990;BME280;68390;52.130;21.218;2023-04-24T11:42:46;99431.66;;;24.26;28.43
78990;BME280;68390;52.130;21.218;2023-04-24T11:45:14;99429.66;;;24.16;28.68
78990;BME280;68390;52.130;21.218;2023-04-24T11:47:40;99424.91;;;24.17;31.87
78990;BME280;68390;52.130;21.218;2023-04-24T11:50:11;99428.84;;;24.15;29.18
78990;BME280;68390;52.130;21.218;2023-04-24T11:52:39;99436.13;;;24.11;30.14
78990;BME280;68390;52.130;21.218;2023-04-24T11:55:23;99422.38;;;24.00;29.67
78990;BME280;68390;52.130;21.218;2023-04-24T11:57:53;99424.66;;;23.98;29.13
78990;BME280;68390;52.130;21.218;2023-04-24T12:00:21;99428.56;;;23.97;28.66
78990;BME280;68390;52.130;21.218;2023-04-24T12:02:47;99426.59;;;23.92;27.25
78990;BME280;68390;52.130;21.218;2023-04-24T12:05:20;99422.69;;;23.78;26.71
78990;BME280;68390;52.130;21.218;2023-04-24T12:07:46;99410.34;;;23.74;28.12
78990;BME280;68390;52.130;21.218;2023-04-24T12:10:11;99415.41;;;23.72;27.55
78990;BME280;68390;52.130;21.218;2023-04-24T12:12:37;99418.22;;;23.77;28.08
78990;BME280;68390;52.130;21.218;2023-04-24T12:15:07;99406.97;;;23.82;28.76
78990;BME280;68390;52.130;21.218;2023-04-24T12:17:34;99414.00;;;23.74;29.37
78990;BME280;68390;52.130;21.218;2023-04-24T12:20:06;99404.19;;;23.72;29.77
78990;BME280;68390;52.130;21.218;2023-04-24T12:22:49;99393.53;;;23.64;29.41
78990;BME280;68390;52.130;21.218;2023-04-24T12:25:18;99391.84;;;23.58;26.43
78990;BME280;68390;52.130;21.218;2023-04-24T12:27:53;99391.81;;;23.48;27.84
78990;BME280;68390;52.130;21.218;2023-04-24T12:30:19;99390.41;;;23.40;27.04
78990;BME280;68390;52.130;21.218;2023-04-24T12:32:47;99387.63;;;23.35;27.35
78990;BME280;68390;52.130;21.218;2023-04-24T12:35:13;99382.00;;;23.25;26.15
78990;BME280;68390;52.130;21.218;2023-04-24T12:37:42;99382.28;;;23.23;28.70
78990;BME280;68390;52.130;21.218;2023-04-24T12:40:10;99382.56;;;23.22;27.59
78990;BME280;68390;52.130;21.218;2023-04-24T12:42:42;99385.06;;;23.18;26.10
78990;BME280;68390;52.130;21.218;2023-04-24T12:45:08;99397.13;;;23.29;34.01
78990;BME280;68390;52.130;21.218;2023-04-24T12:47:34;99391.19;;;23.05;32.93
78990;BME280;68390;52.130;21.218;2023-04-24T12:50:01;99397.06;;;22.98;34.21
78990;BME280;68390;52.130;21.218;2023-04-24T12:52:28;99398.97;;;22.83;33.38
78990;BME280;68390;52.130;21.218;2023-04-24T12:54:56;99397.25;;;22.77;32.41
78990;BME280;68390;52.130;21.218;2023-04-24T12:57:23;99398.91;;;22.73;33.96
78990;BME280;68390;52.130;21.218;2023-04-24T12:59:49;99407.31;;;22.73;35.30
78990;BME280;68390;52.130;21.218;2023-04-24T13:02:14;99412.31;;;22.65;34.87
78990;BME280;68390;52.130;21.218;2023-04-24T13:04:44;99418.00;;;22.28;33.20
78990;BME280;68390;52.130;21.218;2023-04-24T13:07:09;99420.69;;;22.13;36.54
78990;BME280;68390;52.130;21.218;2023-04-24T13:09:35;99433.91;;;21.86;40.70